EZY8470 LFST-EGKK
Flight info
| Callsign | EZY8470 |
|---|---|
| Flight time | 1h 10m |
| Altitude | 27000 |
| Route | POGOL R11 EPL DCT LUVAL DCT ROTSI/N0433F340 DCT KOTUN DCT NINAL DCT KESAX DCT KUNAV |
| Aircraft | A320/M-SDE3FGHIRWY/LB1 |
Departure
| Time | 2026-05-05 20:38 |
|---|---|
| Airport | Strasbourg Airport (LFST) |
Arrival
| Time | 2026-05-05 21:48 |
|---|---|
| Airport | London Gatwick Airport (EGKK) |
| Time | Latitude | Longitude | Altitude | Speed | Heading |
|---|---|---|---|---|---|
| 2026-05-05 19:54 | 48.54446 | 7.62915 | 505 ft | 0 kts | 303° |
| 2026-05-05 20:08 | 48.54446 | 7.62916 | 505 ft | 0 kts | 303° |
| 2026-05-05 20:26 | 48.54437 | 7.62937 | 505 ft | 4 kts | 303° |
| 2026-05-05 20:26 | 48.54422 | 7.62970 | 505 ft | 4 kts | 313° |
| 2026-05-05 20:26 | 48.54402 | 7.62993 | 505 ft | 4 kts | 350° |
| 2026-05-05 20:26 | 48.54385 | 7.62989 | 505 ft | 1 kts | 48° |
| 2026-05-05 20:32 | 48.54396 | 7.63016 | 504 ft | 6 kts | 70° |
| 2026-05-05 20:32 | 48.54379 | 7.63070 | 503 ft | 6 kts | 135° |
| 2026-05-05 20:33 | 48.54346 | 7.63117 | 503 ft | 8 kts | 139° |
| 2026-05-05 20:33 | 48.54283 | 7.63165 | 504 ft | 12 kts | 181° |
| 2026-05-05 20:33 | 48.54211 | 7.63079 | 505 ft | 16 kts | 229° |
| 2026-05-05 20:33 | 48.54128 | 7.62935 | 504 ft | 21 kts | 229° |
| 2026-05-05 20:34 | 48.54023 | 7.62754 | 502 ft | 25 kts | 228° |
| 2026-05-05 20:34 | 48.53903 | 7.62554 | 503 ft | 26 kts | 227° |
| 2026-05-05 20:34 | 48.53787 | 7.62351 | 507 ft | 25 kts | 229° |
| 2026-05-05 20:34 | 48.53673 | 7.62156 | 508 ft | 25 kts | 229° |
| 2026-05-05 20:35 | 48.53558 | 7.61959 | 508 ft | 26 kts | 229° |
| 2026-05-05 20:35 | 48.53438 | 7.61753 | 508 ft | 27 kts | 229° |
| 2026-05-05 20:35 | 48.53320 | 7.61551 | 509 ft | 23 kts | 228° |
| 2026-05-05 20:35 | 48.53241 | 7.61482 | 510 ft | 0 kts | 173° |
| 2026-05-05 20:36 | 48.53239 | 7.61482 | 510 ft | 3 kts | 173° |
| 2026-05-05 20:36 | 48.53185 | 7.61536 | 510 ft | 13 kts | 138° |
| 2026-05-05 20:37 | 48.53159 | 7.61668 | 508 ft | 15 kts | 64° |
| 2026-05-05 20:37 | 48.53207 | 7.61756 | 506 ft | 19 kts | 49° |
| 2026-05-05 20:37 | 48.53557 | 7.62355 | 506 ft | 110 kts | 48° |
| 2026-05-05 20:37 | 48.54222 | 7.63500 | 542 ft | 172 kts | 49° |
| 2026-05-05 20:38 | 48.54997 | 7.64871 | 1384 ft | 171 kts | 50° |
| 2026-05-05 20:38 | 48.55781 | 7.66215 | 2107 ft | 172 kts | 49° |
| 2026-05-05 20:38 | 48.56623 | 7.67643 | 2440 ft | 193 kts | 48° |
| 2026-05-05 20:38 | 48.57568 | 7.69233 | 2670 ft | 215 kts | 45° |
| 2026-05-05 20:39 | 48.58869 | 7.70336 | 3058 ft | 224 kts | 5° |
| 2026-05-05 20:39 | 48.60351 | 7.69883 | 3599 ft | 220 kts | 325° |
| 2026-05-05 20:39 | 48.61562 | 7.68512 | 4400 ft | 216 kts | 313° |
| 2026-05-05 20:39 | 48.62618 | 7.66930 | 5229 ft | 212 kts | 301° |
| 2026-05-05 20:40 | 48.63139 | 7.64907 | 5960 ft | 207 kts | 272° |
| 2026-05-05 20:40 | 48.62987 | 7.62769 | 6664 ft | 207 kts | 248° |
| 2026-05-05 20:40 | 48.62208 | 7.60943 | 7370 ft | 209 kts | 229° |
| 2026-05-05 20:40 | 48.61237 | 7.59296 | 8102 ft | 211 kts | 229° |
| 2026-05-05 20:41 | 48.60300 | 7.57579 | 8828 ft | 213 kts | 238° |
| 2026-05-05 20:41 | 48.59740 | 7.55534 | 9521 ft | 219 kts | 256° |
| 2026-05-05 20:41 | 48.59709 | 7.53069 | 9824 ft | 248 kts | 280° |
| 2026-05-05 20:41 | 48.60244 | 7.50455 | 10079 ft | 273 kts | 285° |
| 2026-05-05 20:42 | 48.60870 | 7.47660 | 10303 ft | 296 kts | 285° |
| 2026-05-05 20:42 | 48.61556 | 7.44647 | 10814 ft | 308 kts | 286° |
| 2026-05-05 20:42 | 48.62261 | 7.41564 | 11535 ft | 312 kts | 286° |
| 2026-05-05 20:42 | 48.62975 | 7.38445 | 12299 ft | 316 kts | 286° |
| 2026-05-05 20:43 | 48.63697 | 7.35280 | 12976 ft | 321 kts | 286° |
| 2026-05-05 20:43 | 48.64423 | 7.32070 | 13690 ft | 324 kts | 286° |
| 2026-05-05 20:43 | 48.65159 | 7.28817 | 14292 ft | 329 kts | 286° |
| 2026-05-05 20:43 | 48.65902 | 7.25520 | 14893 ft | 333 kts | 286° |
| 2026-05-05 20:44 | 48.66652 | 7.22179 | 15502 ft | 338 kts | 286° |
| 2026-05-05 20:44 | 48.67408 | 7.18797 | 16082 ft | 342 kts | 286° |
| 2026-05-05 20:44 | 48.68163 | 7.15410 | 16659 ft | 346 kts | 286° |
| 2026-05-05 20:44 | 48.68946 | 7.11893 | 17261 ft | 350 kts | 286° |
| 2026-05-05 20:45 | 48.70513 | 7.04871 | 18385 ft | 359 kts | 286° |
| 2026-05-05 20:45 | 48.71317 | 7.01274 | 18891 ft | 363 kts | 286° |
| 2026-05-05 20:45 | 48.72127 | 6.97637 | 19411 ft | 366 kts | 286° |
| 2026-05-05 20:46 | 48.72944 | 6.93955 | 19904 ft | 370 kts | 286° |
| 2026-05-05 20:46 | 48.73767 | 6.90242 | 20411 ft | 374 kts | 286° |
| 2026-05-05 20:46 | 48.74594 | 6.86490 | 20915 ft | 377 kts | 286° |
| 2026-05-05 20:46 | 48.75417 | 6.82756 | 21420 ft | 380 kts | 286° |
| 2026-05-05 20:47 | 48.76258 | 6.78943 | 21917 ft | 383 kts | 286° |
| 2026-05-05 20:47 | 48.77104 | 6.75098 | 22401 ft | 386 kts | 286° |
| 2026-05-05 20:47 | 48.77956 | 6.71216 | 22884 ft | 389 kts | 286° |
| 2026-05-05 20:47 | 48.78809 | 6.67311 | 23361 ft | 392 kts | 285° |
| 2026-05-05 20:48 | 48.79667 | 6.63368 | 23762 ft | 395 kts | 285° |
| 2026-05-05 20:48 | 48.80530 | 6.59401 | 24171 ft | 397 kts | 285° |
| 2026-05-05 20:48 | 48.81439 | 6.55435 | 24571 ft | 401 kts | 289° |
| 2026-05-05 20:48 | 48.82493 | 6.51497 | 24932 ft | 404 kts | 290° |
| 2026-05-05 20:49 | 48.83601 | 6.47561 | 25315 ft | 407 kts | 291° |
| 2026-05-05 20:49 | 48.84746 | 6.43614 | 25700 ft | 409 kts | 291° |
| 2026-05-05 20:49 | 48.85888 | 6.39709 | 26075 ft | 412 kts | 291° |
| 2026-05-05 20:49 | 48.87052 | 6.35722 | 26447 ft | 414 kts | 291° |
| 2026-05-05 20:50 | 48.88210 | 6.31713 | 26765 ft | 416 kts | 291° |
| 2026-05-05 20:50 | 48.89353 | 6.27705 | 26831 ft | 407 kts | 291° |
| 2026-05-05 20:50 | 48.90447 | 6.23839 | 26839 ft | 391 kts | 290° |
| 2026-05-05 20:50 | 48.91504 | 6.20070 | 26838 ft | 385 kts | 290° |
| 2026-05-05 20:51 | 48.92548 | 6.16319 | 26833 ft | 385 kts | 290° |
| 2026-05-05 20:51 | 48.93591 | 6.12562 | 26843 ft | 386 kts | 290° |
| 2026-05-05 20:51 | 48.94624 | 6.08843 | 26837 ft | 387 kts | 291° |
| 2026-05-05 20:51 | 48.95677 | 6.05074 | 26836 ft | 387 kts | 291° |
| 2026-05-05 20:52 | 48.96732 | 6.01307 | 26837 ft | 387 kts | 291° |
| 2026-05-05 20:52 | 48.97789 | 5.97536 | 26834 ft | 387 kts | 291° |
| 2026-05-05 20:52 | 48.98844 | 5.93766 | 26833 ft | 387 kts | 291° |
| 2026-05-05 20:52 | 48.99894 | 5.89991 | 26831 ft | 387 kts | 290° |
| 2026-05-05 20:53 | 49.00942 | 5.86213 | 26828 ft | 387 kts | 290° |
| 2026-05-05 20:53 | 49.01989 | 5.82435 | 26826 ft | 387 kts | 290° |
| 2026-05-05 20:53 | 49.03030 | 5.78665 | 26820 ft | 387 kts | 290° |
| 2026-05-05 20:53 | 49.04072 | 5.74885 | 26817 ft | 387 kts | 290° |
| 2026-05-05 20:54 | 49.05114 | 5.71106 | 26829 ft | 387 kts | 290° |
| 2026-05-05 20:54 | 49.06141 | 5.67374 | 26824 ft | 387 kts | 290° |
| 2026-05-05 20:54 | 49.07182 | 5.63594 | 26818 ft | 387 kts | 290° |
| 2026-05-05 20:54 | 49.08224 | 5.59809 | 26816 ft | 387 kts | 290° |
| 2026-05-05 20:55 | 49.09263 | 5.56023 | 26814 ft | 387 kts | 290° |
| 2026-05-05 20:55 | 49.10300 | 5.52236 | 26813 ft | 387 kts | 290° |
| 2026-05-05 20:55 | 49.11335 | 5.48446 | 26812 ft | 387 kts | 290° |
| 2026-05-05 20:55 | 49.12368 | 5.44649 | 26808 ft | 387 kts | 290° |
| 2026-05-05 20:56 | 49.13399 | 5.40857 | 26807 ft | 387 kts | 290° |
| 2026-05-05 20:56 | 49.14430 | 5.37060 | 26805 ft | 387 kts | 290° |
| 2026-05-05 20:56 | 49.15447 | 5.33311 | 26806 ft | 387 kts | 290° |
| 2026-05-05 20:56 | 49.16477 | 5.29504 | 26815 ft | 387 kts | 290° |
| 2026-05-05 20:57 | 49.17506 | 5.25697 | 26807 ft | 388 kts | 290° |
| 2026-05-05 20:57 | 49.18535 | 5.21886 | 26804 ft | 388 kts | 290° |
| 2026-05-05 20:57 | 49.19563 | 5.18066 | 26794 ft | 389 kts | 291° |
| 2026-05-05 20:57 | 49.20592 | 5.14241 | 26794 ft | 389 kts | 291° |
| 2026-05-05 20:58 | 49.21621 | 5.10417 | 26792 ft | 389 kts | 291° |
| 2026-05-05 20:58 | 49.22649 | 5.06589 | 26794 ft | 389 kts | 291° |
| 2026-05-05 20:58 | 49.23663 | 5.02807 | 26795 ft | 389 kts | 291° |
| 2026-05-05 20:58 | 49.24689 | 4.98970 | 26793 ft | 389 kts | 291° |
| 2026-05-05 20:59 | 49.25712 | 4.95130 | 26792 ft | 390 kts | 290° |
| 2026-05-05 20:59 | 49.26735 | 4.91292 | 26792 ft | 389 kts | 290° |
| 2026-05-05 20:59 | 49.27757 | 4.87454 | 26801 ft | 389 kts | 291° |
| 2026-05-05 20:59 | 49.28779 | 4.83612 | 26797 ft | 390 kts | 291° |
| 2026-05-05 21:00 | 49.29801 | 4.79765 | 26794 ft | 390 kts | 291° |
| 2026-05-05 21:00 | 49.30822 | 4.75915 | 26792 ft | 390 kts | 291° |
| 2026-05-05 21:00 | 49.31841 | 4.72066 | 26792 ft | 390 kts | 291° |
| 2026-05-05 21:00 | 49.32856 | 4.68214 | 26790 ft | 390 kts | 291° |
| 2026-05-05 21:01 | 49.33871 | 4.64354 | 26792 ft | 390 kts | 291° |
| 2026-05-05 21:01 | 49.34883 | 4.60499 | 26789 ft | 390 kts | 291° |
| 2026-05-05 21:01 | 49.35883 | 4.56690 | 26791 ft | 390 kts | 291° |
| 2026-05-05 21:01 | 49.36894 | 4.52835 | 26787 ft | 390 kts | 291° |
| 2026-05-05 21:02 | 49.37904 | 4.48972 | 26787 ft | 390 kts | 291° |
| 2026-05-05 21:02 | 49.38909 | 4.45114 | 26793 ft | 390 kts | 291° |
| 2026-05-05 21:02 | 49.39916 | 4.41255 | 26791 ft | 390 kts | 291° |
| 2026-05-05 21:02 | 49.40927 | 4.37386 | 26792 ft | 390 kts | 291° |
| 2026-05-05 21:03 | 49.41936 | 4.33519 | 26792 ft | 390 kts | 291° |
| 2026-05-05 21:03 | 49.42941 | 4.29648 | 26793 ft | 390 kts | 291° |
| 2026-05-05 21:03 | 49.43943 | 4.25778 | 26792 ft | 390 kts | 291° |
| 2026-05-05 21:03 | 49.44931 | 4.21952 | 26788 ft | 390 kts | 291° |
| 2026-05-05 21:04 | 49.45928 | 4.18075 | 26787 ft | 391 kts | 291° |
| 2026-05-05 21:04 | 49.46926 | 4.14188 | 26789 ft | 391 kts | 291° |
| 2026-05-05 21:04 | 49.47926 | 4.10301 | 26794 ft | 391 kts | 291° |
| 2026-05-05 21:04 | 49.48928 | 4.06406 | 26796 ft | 391 kts | 291° |
| 2026-05-05 21:05 | 49.49927 | 4.02514 | 26794 ft | 392 kts | 291° |
| 2026-05-05 21:05 | 49.50926 | 3.98616 | 26795 ft | 392 kts | 291° |
| 2026-05-05 21:05 | 49.51920 | 3.94714 | 26801 ft | 392 kts | 291° |
| 2026-05-05 21:05 | 49.52916 | 3.90804 | 26812 ft | 392 kts | 291° |
| 2026-05-05 21:06 | 49.53911 | 3.86896 | 26811 ft | 392 kts | 291° |
| 2026-05-05 21:06 | 49.54902 | 3.82990 | 26812 ft | 392 kts | 291° |
| 2026-05-05 21:06 | 49.55892 | 3.79079 | 26814 ft | 392 kts | 291° |
| 2026-05-05 21:06 | 49.56881 | 3.75169 | 26820 ft | 392 kts | 291° |
| 2026-05-05 21:07 | 49.57871 | 3.71259 | 26820 ft | 392 kts | 291° |
| 2026-05-05 21:07 | 49.58847 | 3.67400 | 26820 ft | 392 kts | 291° |
| 2026-05-05 21:07 | 49.59835 | 3.63488 | 26820 ft | 392 kts | 291° |
| 2026-05-05 21:07 | 49.60822 | 3.59579 | 26820 ft | 392 kts | 291° |
| 2026-05-05 21:08 | 49.61809 | 3.55660 | 26834 ft | 392 kts | 291° |
| 2026-05-05 21:08 | 49.62794 | 3.51738 | 26835 ft | 392 kts | 291° |
| 2026-05-05 21:08 | 49.63774 | 3.47819 | 26835 ft | 392 kts | 291° |
| 2026-05-05 21:08 | 49.64750 | 3.43900 | 26835 ft | 392 kts | 291° |
| 2026-05-05 21:09 | 49.65727 | 3.39973 | 26846 ft | 392 kts | 291° |
| 2026-05-05 21:09 | 49.66703 | 3.36050 | 26846 ft | 392 kts | 291° |
| 2026-05-05 21:09 | 49.67680 | 3.32125 | 26847 ft | 392 kts | 291° |
| 2026-05-05 21:09 | 49.68654 | 3.28201 | 26847 ft | 391 kts | 291° |
| 2026-05-05 21:10 | 49.69615 | 3.24325 | 26848 ft | 391 kts | 291° |
| 2026-05-05 21:10 | 49.70587 | 3.20402 | 26838 ft | 391 kts | 290° |
| 2026-05-05 21:10 | 49.71557 | 3.16474 | 26839 ft | 391 kts | 290° |
| 2026-05-05 21:10 | 49.72522 | 3.12549 | 26843 ft | 391 kts | 290° |
| 2026-05-05 21:11 | 49.73486 | 3.08611 | 26849 ft | 391 kts | 290° |
| 2026-05-05 21:11 | 49.74450 | 3.04681 | 26862 ft | 391 kts | 291° |
| 2026-05-05 21:11 | 49.75088 | 3.02085 | 26865 ft | 390 kts | 291° |
| 2026-05-05 21:11 | 49.76373 | 2.96838 | 26866 ft | 390 kts | 290° |
| 2026-05-05 21:12 | 49.77010 | 2.94236 | 26861 ft | 390 kts | 290° |
| 2026-05-05 21:12 | 49.78279 | 2.89038 | 26868 ft | 390 kts | 290° |
| 2026-05-05 21:12 | 49.79239 | 2.85112 | 26867 ft | 390 kts | 290° |
| 2026-05-05 21:12 | 49.80198 | 2.81176 | 26862 ft | 391 kts | 290° |
| 2026-05-05 21:13 | 49.81152 | 2.77240 | 26859 ft | 391 kts | 290° |
| 2026-05-05 21:13 | 49.81782 | 2.74635 | 26860 ft | 391 kts | 290° |
| 2026-05-05 21:13 | 49.82733 | 2.70685 | 26869 ft | 391 kts | 290° |
| 2026-05-05 21:13 | 49.83680 | 2.66748 | 26876 ft | 390 kts | 290° |
| 2026-05-05 21:14 | 49.84627 | 2.62811 | 26875 ft | 390 kts | 290° |
| 2026-05-05 21:14 | 49.85571 | 2.58882 | 26886 ft | 389 kts | 290° |
| 2026-05-05 21:14 | 49.86513 | 2.54953 | 26884 ft | 389 kts | 290° |
| 2026-05-05 21:14 | 49.87455 | 2.51024 | 26891 ft | 388 kts | 290° |
| 2026-05-05 21:15 | 49.88696 | 2.45827 | 26885 ft | 388 kts | 290° |
| 2026-05-05 21:15 | 49.89330 | 2.43169 | 26884 ft | 388 kts | 290° |
| 2026-05-05 21:15 | 49.90253 | 2.39300 | 26885 ft | 388 kts | 290° |
| 2026-05-05 21:15 | 49.91188 | 2.35372 | 26886 ft | 388 kts | 290° |
| 2026-05-05 21:16 | 49.92122 | 2.31444 | 26885 ft | 388 kts | 290° |
| 2026-05-05 21:16 | 49.93054 | 2.27507 | 26882 ft | 389 kts | 290° |
| 2026-05-05 21:16 | 49.93984 | 2.23568 | 26887 ft | 388 kts | 290° |
| 2026-05-05 21:16 | 49.94909 | 2.19632 | 26887 ft | 388 kts | 290° |
| 2026-05-05 21:17 | 49.95836 | 2.15697 | 26892 ft | 388 kts | 290° |
| 2026-05-05 21:17 | 49.96765 | 2.11758 | 26895 ft | 388 kts | 290° |
| 2026-05-05 21:17 | 49.97690 | 2.07828 | 26904 ft | 387 kts | 290° |
| 2026-05-05 21:17 | 49.98595 | 2.03958 | 26907 ft | 387 kts | 290° |
| 2026-05-05 21:18 | 49.99512 | 2.00028 | 26906 ft | 387 kts | 290° |
| 2026-05-05 21:18 | 50.00427 | 1.96097 | 26898 ft | 387 kts | 290° |
| 2026-05-05 21:18 | 50.01343 | 1.92163 | 26903 ft | 387 kts | 290° |
| 2026-05-05 21:18 | 50.02260 | 1.88228 | 26897 ft | 387 kts | 290° |
| 2026-05-05 21:19 | 50.03177 | 1.84290 | 26896 ft | 388 kts | 290° |
| 2026-05-05 21:19 | 50.04094 | 1.80348 | 26904 ft | 388 kts | 290° |
| 2026-05-05 21:19 | 50.05007 | 1.76401 | 26908 ft | 388 kts | 290° |
| 2026-05-05 21:19 | 50.05909 | 1.72509 | 26916 ft | 387 kts | 291° |
| 2026-05-05 21:20 | 50.07095 | 1.68765 | 26917 ft | 386 kts | 303° |
| 2026-05-05 21:20 | 50.08702 | 1.65430 | 26914 ft | 385 kts | 314° |
| 2026-05-05 21:20 | 50.10651 | 1.62580 | 26918 ft | 384 kts | 320° |
| 2026-05-05 21:20 | 50.12674 | 1.59856 | 26916 ft | 384 kts | 320° |
| 2026-05-05 21:21 | 50.14689 | 1.57120 | 26919 ft | 384 kts | 320° |
| 2026-05-05 21:21 | 50.16702 | 1.54379 | 26915 ft | 385 kts | 320° |
| 2026-05-05 21:21 | 50.18719 | 1.51632 | 26913 ft | 384 kts | 319° |
| 2026-05-05 21:21 | 50.20710 | 1.48923 | 26906 ft | 385 kts | 319° |
| 2026-05-05 21:22 | 50.22730 | 1.46169 | 26917 ft | 389 kts | 319° |
| 2026-05-05 21:22 | 50.24798 | 1.43346 | 26325 ft | 400 kts | 319° |
| 2026-05-05 21:22 | 50.26887 | 1.40489 | 25824 ft | 397 kts | 319° |
| 2026-05-05 21:22 | 50.28953 | 1.37658 | 25361 ft | 393 kts | 319° |
| 2026-05-05 21:23 | 50.30996 | 1.34855 | 24893 ft | 389 kts | 319° |
| 2026-05-05 21:23 | 50.33018 | 1.32075 | 24419 ft | 386 kts | 319° |
| 2026-05-05 21:23 | 50.35028 | 1.29311 | 23940 ft | 383 kts | 319° |
| 2026-05-05 21:23 | 50.37021 | 1.26571 | 23456 ft | 380 kts | 319° |
| 2026-05-05 21:24 | 50.39000 | 1.23847 | 22918 ft | 377 kts | 319° |
| 2026-05-05 21:24 | 50.40935 | 1.21178 | 22461 ft | 373 kts | 319° |
| 2026-05-05 21:24 | 50.42872 | 1.18503 | 21994 ft | 370 kts | 320° |
| 2026-05-05 21:24 | 50.44797 | 1.15843 | 21534 ft | 367 kts | 319° |
| 2026-05-05 21:25 | 50.46706 | 1.13202 | 21083 ft | 364 kts | 320° |
| 2026-05-05 21:25 | 50.48597 | 1.10580 | 20642 ft | 362 kts | 319° |
| 2026-05-05 21:25 | 50.50473 | 1.07975 | 20209 ft | 359 kts | 320° |
| 2026-05-05 21:25 | 50.52269 | 1.05267 | 19784 ft | 357 kts | 314° |
| 2026-05-05 21:26 | 50.53963 | 1.02418 | 19350 ft | 356 kts | 314° |
| 2026-05-05 21:26 | 50.55649 | 0.99586 | 18924 ft | 354 kts | 314° |
| 2026-05-05 21:26 | 50.57302 | 0.96801 | 18504 ft | 352 kts | 314° |
| 2026-05-05 21:26 | 50.58967 | 0.93984 | 18062 ft | 351 kts | 315° |
| 2026-05-05 21:27 | 50.60620 | 0.91183 | 17625 ft | 348 kts | 314° |
| 2026-05-05 21:27 | 50.62257 | 0.88410 | 17220 ft | 344 kts | 314° |
| 2026-05-05 21:27 | 50.63871 | 0.85672 | 17020 ft | 335 kts | 314° |
| 2026-05-05 21:27 | 50.65429 | 0.83029 | 16672 ft | 325 kts | 314° |
| 2026-05-05 21:28 | 50.66974 | 0.80413 | 15909 ft | 326 kts | 314° |
| 2026-05-05 21:28 | 50.68473 | 0.77777 | 15587 ft | 324 kts | 312° |
| 2026-05-05 21:28 | 50.69919 | 0.75028 | 15066 ft | 328 kts | 310° |
| 2026-05-05 21:28 | 50.71345 | 0.72200 | 14549 ft | 331 kts | 309° |
| 2026-05-05 21:29 | 50.72752 | 0.69368 | 14018 ft | 334 kts | 309° |
| 2026-05-05 21:29 | 50.74193 | 0.66477 | 13584 ft | 333 kts | 310° |
| 2026-05-05 21:29 | 50.75614 | 0.63645 | 12954 ft | 326 kts | 310° |
| 2026-05-05 21:29 | 50.77007 | 0.60887 | 12419 ft | 316 kts | 310° |
| 2026-05-05 21:30 | 50.78347 | 0.58237 | 12065 ft | 302 kts | 310° |
| 2026-05-05 21:30 | 50.79643 | 0.55679 | 11534 ft | 295 kts | 310° |
| 2026-05-05 21:30 | 50.80919 | 0.53167 | 11003 ft | 290 kts | 311° |
| 2026-05-05 21:30 | 50.82178 | 0.50693 | 10534 ft | 287 kts | 310° |
| 2026-05-05 21:31 | 50.83427 | 0.48235 | 10089 ft | 286 kts | 310° |
| 2026-05-05 21:31 | 50.84672 | 0.45783 | 9617 ft | 287 kts | 310° |
| 2026-05-05 21:31 | 50.85900 | 0.43357 | 9246 ft | 285 kts | 310° |
| 2026-05-05 21:31 | 50.87129 | 0.40924 | 8991 ft | 279 kts | 310° |
| 2026-05-05 21:32 | 50.88339 | 0.38528 | 8999 ft | 279 kts | 310° |
| 2026-05-05 21:32 | 50.89552 | 0.36122 | 9012 ft | 279 kts | 310° |
| 2026-05-05 21:32 | 50.90761 | 0.33712 | 9012 ft | 279 kts | 310° |
| 2026-05-05 21:32 | 50.91953 | 0.31335 | 8967 ft | 270 kts | 310° |
| 2026-05-05 21:33 | 50.93087 | 0.29072 | 8774 ft | 255 kts | 310° |
| 2026-05-05 21:33 | 50.94171 | 0.26910 | 8335 ft | 248 kts | 310° |
| 2026-05-05 21:33 | 50.95193 | 0.24763 | 8049 ft | 239 kts | 300° |
| 2026-05-05 21:33 | 50.95626 | 0.22061 | 8039 ft | 270 kts | 271° |
| 2026-05-05 21:34 | 50.95177 | 0.19110 | 8019 ft | 283 kts | 246° |
| 2026-05-05 21:34 | 50.94254 | 0.16384 | 8015 ft | 285 kts | 242° |
| 2026-05-05 21:34 | 50.93258 | 0.13661 | 8003 ft | 286 kts | 241° |
| 2026-05-05 21:34 | 50.92255 | 0.10946 | 7992 ft | 286 kts | 241° |
| 2026-05-05 21:35 | 50.91248 | 0.08228 | 7985 ft | 286 kts | 241° |
| 2026-05-05 21:35 | 50.90240 | 0.05512 | 7961 ft | 286 kts | 241° |
| 2026-05-05 21:35 | 50.89232 | 0.02798 | 7973 ft | 286 kts | 241° |
| 2026-05-05 21:35 | 50.88224 | 0.00086 | 7973 ft | 286 kts | 241° |
| 2026-05-05 21:36 | 50.87219 | -0.02620 | 7715 ft | 284 kts | 241° |
| 2026-05-05 21:36 | 50.86221 | -0.05311 | 7302 ft | 283 kts | 241° |
| 2026-05-05 21:36 | 50.85228 | -0.07995 | 6931 ft | 282 kts | 241° |
| 2026-05-05 21:36 | 50.84242 | -0.10657 | 6559 ft | 280 kts | 241° |
| 2026-05-05 21:37 | 50.83261 | -0.13311 | 6167 ft | 278 kts | 241° |
| 2026-05-05 21:37 | 50.82350 | -0.15994 | 5979 ft | 276 kts | 253° |
| 2026-05-05 21:37 | 50.82140 | -0.18910 | 5992 ft | 271 kts | 281° |
| 2026-05-05 21:37 | 50.82815 | -0.21639 | 5997 ft | 266 kts | 309° |
| 2026-05-05 21:38 | 50.84204 | -0.23488 | 5998 ft | 262 kts | 335° |
| 2026-05-05 21:38 | 50.85881 | -0.24607 | 6002 ft | 262 kts | 341° |
| 2026-05-05 21:38 | 50.87590 | -0.25622 | 6000 ft | 262 kts | 341° |
| 2026-05-05 21:38 | 50.89296 | -0.26612 | 5996 ft | 258 kts | 341° |
| 2026-05-05 21:39 | 50.90928 | -0.27555 | 5973 ft | 242 kts | 341° |
| 2026-05-05 21:39 | 50.92473 | -0.28454 | 5793 ft | 232 kts | 341° |
| 2026-05-05 21:39 | 50.93980 | -0.29335 | 5496 ft | 230 kts | 341° |
| 2026-05-05 21:39 | 50.95473 | -0.30209 | 5162 ft | 228 kts | 341° |
| 2026-05-05 21:40 | 50.96959 | -0.31083 | 4839 ft | 228 kts | 341° |
| 2026-05-05 21:40 | 50.98358 | -0.32226 | 4501 ft | 228 kts | 319° |
| 2026-05-05 21:40 | 50.99240 | -0.34311 | 4157 ft | 231 kts | 295° |
| 2026-05-05 21:40 | 50.99823 | -0.36701 | 3812 ft | 232 kts | 291° |
| 2026-05-05 21:41 | 51.00360 | -0.39076 | 3481 ft | 231 kts | 291° |
| 2026-05-05 21:41 | 51.00924 | -0.41461 | 3145 ft | 230 kts | 298° |
| 2026-05-05 21:41 | 51.01951 | -0.43280 | 3008 ft | 216 kts | 326° |
| 2026-05-05 21:41 | 51.03166 | -0.44533 | 3006 ft | 202 kts | 330° |
| 2026-05-05 21:42 | 51.04330 | -0.45641 | 3025 ft | 191 kts | 331° |
| 2026-05-05 21:42 | 51.05459 | -0.46704 | 3019 ft | 187 kts | 331° |
| 2026-05-05 21:42 | 51.06573 | -0.47759 | 3013 ft | 186 kts | 331° |
| 2026-05-05 21:42 | 51.07675 | -0.48805 | 3008 ft | 185 kts | 331° |
| 2026-05-05 21:43 | 51.08876 | -0.49410 | 2994 ft | 182 kts | 4° |
| 2026-05-05 21:43 | 51.10030 | -0.48698 | 3012 ft | 181 kts | 38° |
| 2026-05-05 21:43 | 51.10820 | -0.47174 | 3005 ft | 178 kts | 64° |
| 2026-05-05 21:43 | 51.11141 | -0.45353 | 3027 ft | 167 kts | 76° |
| 2026-05-05 21:44 | 51.11391 | -0.43580 | 3008 ft | 163 kts | 76° |
| 2026-05-05 21:44 | 51.11634 | -0.41852 | 2879 ft | 161 kts | 76° |
| 2026-05-05 21:44 | 51.11878 | -0.40117 | 2698 ft | 160 kts | 77° |
| 2026-05-05 21:44 | 51.12119 | -0.38396 | 2497 ft | 159 kts | 77° |
| 2026-05-05 21:45 | 51.12358 | -0.36688 | 2282 ft | 157 kts | 77° |
| 2026-05-05 21:45 | 51.12595 | -0.34994 | 2067 ft | 156 kts | 77° |
| 2026-05-05 21:45 | 51.12829 | -0.33318 | 1858 ft | 155 kts | 77° |
| 2026-05-05 21:45 | 51.13061 | -0.31660 | 1659 ft | 150 kts | 77° |
| 2026-05-05 21:46 | 51.13277 | -0.30109 | 1443 ft | 139 kts | 77° |
| 2026-05-05 21:46 | 51.13483 | -0.28630 | 1254 ft | 135 kts | 78° |
| 2026-05-05 21:46 | 51.13685 | -0.27174 | 1069 ft | 135 kts | 77° |
| 2026-05-05 21:46 | 51.13884 | -0.25742 | 886 ft | 134 kts | 77° |
| 2026-05-05 21:47 | 51.14086 | -0.24292 | 700 ft | 135 kts | 77° |
| 2026-05-05 21:47 | 51.14286 | -0.22843 | 520 ft | 133 kts | 77° |
| 2026-05-05 21:47 | 51.14486 | -0.21401 | 349 ft | 133 kts | 77° |
| 2026-05-05 21:47 | 51.14684 | -0.19970 | 218 ft | 127 kts | 77° |
| 2026-05-05 21:48 | 51.14816 | -0.19038 | 210 ft | 53 kts | 77° |
| 2026-05-05 21:48 | 51.14881 | -0.18562 | 205 ft | 40 kts | 78° |
| 2026-05-05 21:48 | 51.14925 | -0.18246 | 204 ft | 25 kts | 77° |
| 2026-05-05 21:48 | 51.14966 | -0.18025 | 213 ft | 21 kts | 67° |
| 2026-05-05 21:49 | 51.15041 | -0.17831 | 213 ft | 21 kts | 53° |
| 2026-05-05 21:49 | 51.15113 | -0.17760 | 207 ft | 12 kts | 2° |
| 2026-05-05 21:49 | 51.15196 | -0.17771 | 211 ft | 12 kts | 351° |
| 2026-05-05 21:49 | 51.15263 | -0.17719 | 207 ft | 13 kts | 73° |
| 2026-05-05 21:50 | 51.15283 | -0.17569 | 204 ft | 15 kts | 78° |
| 2026-05-05 21:50 | 51.15301 | -0.17414 | 208 ft | 11 kts | 77° |
| 2026-05-05 21:50 | 51.15367 | -0.17375 | 204 ft | 12 kts | 346° |
| 2026-05-05 21:50 | 51.15385 | -0.17381 | 214 ft | 0 kts | 347° |
| 2026-05-05 21:51 | 51.15406 | -0.17389 | 208 ft | 7 kts | 347° |
| 2026-05-05 21:51 | 51.15421 | -0.17395 | 204 ft | 1 kts | 347° |
| 2026-05-05 21:51 | 51.15424 | -0.17396 | 204 ft | 0 kts | 347° |
| 2026-05-05 21:54 | 51.15425 | -0.17396 | 204 ft | 1 kts | 347° |
| 2026-05-05 21:54 | 51.15475 | -0.17414 | 207 ft | 9 kts | 347° |
| 2026-05-05 21:55 | 51.15526 | -0.17440 | 210 ft | 7 kts | 327° |
| 2026-05-05 21:55 | 51.15538 | -0.17502 | 208 ft | 5 kts | 268° |
| 2026-05-05 21:55 | 51.15532 | -0.17555 | 214 ft | 5 kts | 258° |
| 2026-05-05 21:55 | 51.15522 | -0.17634 | 204 ft | 7 kts | 257° |
| 2026-05-05 21:56 | 51.15513 | -0.17696 | 206 ft | 5 kts | 257° |
| 2026-05-05 21:56 | 51.15513 | -0.17731 | 206 ft | 2 kts | 291° |
| 2026-05-05 21:56 | 51.15517 | -0.17735 | 208 ft | 1 kts | 316° |
| 2026-05-05 21:56 | 51.15532 | -0.17741 | 211 ft | 2 kts | 341° |
| 2026-05-05 21:57 | 51.15554 | -0.17749 | 210 ft | 8 kts | 348° |
| 2026-05-05 21:57 | 51.15568 | -0.17754 | 208 ft | 0 kts | 348° |
| 2026-05-05 21:57 | 51.15570 | -0.17755 | 207 ft | 0 kts | 348° |
| 2026-05-05 21:57 | 51.15574 | -0.17756 | 206 ft | 0 kts | 348° |